Time;durP1;ratioP1;P1;durP2;ratioP2;P2;SDS_P1;SDS_P2;PMS_P1;PMS_P2;Temp;Humidity;BMP_temperature;BMP_pressure;BME280_temperature;BME280_humidity;BME280_pressure;Samples;Min_cycle;Max_cycle;Signal;HPM_P1;HPM_P2
2023/04/26 00:00:21;;;;;;;6.72;2.65;;;6.00;99.90;;;;;;4991214;28;20180;-44
2023/04/26 00:02:47;;;;;;;5.22;2.47;;;;;;;;;;4990715;28;20188;-44
2023/04/26 00:05:14;;;;;;;10.15;2.97;;;5.90;99.90;;;;;;4990987;28;20243;-47
2023/04/26 00:07:41;;;;;;;7.57;3.17;;;5.90;99.90;;;;;;4990421;28;20177;-46
2023/04/26 00:10:07;;;;;;;7.03;2.85;;;5.90;99.90;;;;;;4974868;28;20239;-44
2023/04/26 00:12:33;;;;;;;7.93;2.53;;;5.90;99.90;;;;;;4971336;28;20165;-44
2023/04/26 00:14:58;;;;;;;11.60;3.05;;;5.90;99.90;;;;;;4971281;28;20220;-44
2023/04/26 00:17:25;;;;;;;8.20;3.30;;;;;;;;;;4970996;28;20174;-45
2023/04/26 00:19:50;;;;;;;7.10;3.30;;;5.90;99.90;;;;;;4971758;28;20218;-44
2023/04/26 00:22:16;;;;;;;8.05;3.47;;;5.90;99.90;;;;;;4971300;28;20497;-47
2023/04/26 00:24:42;;;;;;;13.00;3.30;;;5.90;99.90;;;;;;4971034;28;20179;-45
2023/04/26 00:27:09;;;;;;;8.48;3.05;;;6.00;99.90;;;;;;4971071;28;20267;-44
2023/04/26 00:29:36;;;;;;;4.75;2.75;;;6.00;99.90;;;;;;4969902;28;20181;-44
2023/04/26 00:32:01;;;;;;;8.25;2.90;;;6.10;99.90;;;;;;4971031;28;20270;-57
2023/04/26 00:34:35;;;;;;;4.70;3.00;;;6.10;99.90;;;;;;4970769;28;20272;-56
2023/04/26 00:37:01;;;;;;;10.10;3.47;;;;;;;;;;4970952;28;20195;-55
2023/04/26 00:39:27;;;;;;;11.13;3.47;;;;;;;;;;4980269;28;20177;-52
2023/04/26 00:41:53;;;;;;;8.30;3.20;;;;;;;;;;4989751;28;20237;-44
2023/04/26 00:44:18;;;;;;;8.60;3.60;;;6.10;99.90;;;;;;4990819;28;20523;-56
2023/04/26 00:46:44;;;;;;;8.30;3.28;;;6.20;99.90;;;;;;4990097;28;20176;-56
2023/04/26 00:49:15;;;;;;;13.98;3.35;;;6.10;99.90;;;;;;4990135;28;20633;-56
2023/04/26 00:51:42;;;;;;;7.22;3.38;;;6.10;99.90;;;;;;4990148;28;20214;-54
2023/04/26 00:54:08;;;;;;;5.80;3.33;;;6.10;99.90;;;;;;4989769;28;20177;-54
2023/04/26 00:56:35;;;;;;;9.00;3.53;;;6.10;99.90;;;;;;4990122;28;20176;-54
2023/04/26 00:59:02;;;;;;;8.30;3.50;;;6.10;99.90;;;;;;4989964;28;20242;-57
2023/04/26 01:01:28;;;;;;;9.32;3.08;;;;;;;;;;4989925;28;20248;-56
2023/04/26 01:03:54;;;;;;;7.32;2.95;;;5.90;99.90;;;;;;4989887;28;20697;-56
2023/04/26 01:06:21;;;;;;;9.57;3.20;;;5.80;99.90;;;;;;4990088;28;20168;-54
2023/04/26 01:08:46;;;;;;;10.02;3.15;;;5.80;99.90;;;;;;4982957;28;20177;-56
2023/04/26 01:11:13;;;;;;;8.70;2.70;;;5.70;99.90;;;;;;4970592;28;20173;-56
2023/04/26 01:13:41;;;;;;;8.02;3.20;;;5.80;99.90;;;;;;4970294;28;20173;-52
2023/04/26 01:16:07;;;;;;;7.38;3.22;;;5.80;99.90;;;;;;4970184;28;20212;-54
2023/04/26 01:18:34;;;;;;;8.23;2.92;;;5.80;99.90;;;;;;4970234;28;20579;-54
2023/04/26 01:21:00;;;;;;;7.05;3.72;;;5.70;99.90;;;;;;4970273;28;20223;-55
2023/04/26 01:23:26;;;;;;;9.00;3.08;;;5.80;99.90;;;;;;4970394;28;20174;-57
2023/04/26 01:25:52;;;;;;;6.63;3.28;;;5.70;99.90;;;;;;4970447;28;20257;-53
2023/04/26 01:28:18;;;;;;;10.95;3.67;;;5.50;99.90;;;;;;4969174;28;20617;-54
2023/04/26 01:30:43;;;;;;;9.05;3.95;;;5.60;99.90;;;;;;4970044;28;20230;-51
2023/04/26 01:33:09;;;;;;;6.82;3.80;;;5.60;99.90;;;;;;4971147;28;20177;-44
2023/04/26 01:35:35;;;;;;;16.63;4.40;;;;;;;;;;4968799;28;20304;-44
2023/04/26 01:38:00;;;;;;;10.40;4.18;;;5.50;99.90;;;;;;4969896;28;20173;-45
2023/04/26 01:40:26;;;;;;;8.77;3.95;;;5.50;99.90;;;;;;4969837;28;20173;-49
2023/04/26 01:42:52;;;;;;;12.35;4.47;;;5.40;99.90;;;;;;4970274;28;20603;-45
2023/04/26 01:45:17;;;;;;;12.73;4.25;;;5.40;99.90;;;;;;4970093;28;20633;-44
2023/04/26 01:47:43;;;;;;;10.95;3.70;;;5.20;99.90;;;;;;4969812;28;20196;-45
2023/04/26 01:50:09;;;;;;;11.05;3.35;;;5.30;99.90;;;;;;4969971;28;20177;-46
2023/04/26 01:52:35;;;;;;;15.07;4.07;;;;;;;;;;4970131;28;20173;-51
2023/04/26 01:55:01;;;;;;;10.60;3.58;;;5.40;99.90;;;;;;4969983;28;20246;-44
2023/04/26 01:57:26;;;;;;;13.18;3.97;;;5.40;99.90;;;;;;4969718;28;20637;-44
2023/04/26 01:59:54;;;;;;;12.18;3.72;;;;;;;;;;4969998;28;20171;-45
2023/04/26 02:02:20;;;;;;;14.13;4.00;;;;;;;;;;4969429;28;20173;-44
2023/04/26 02:04:46;;;;;;;14.35;3.47;;;5.50;99.90;;;;;;4969156;28;20180;-44
2023/04/26 02:07:11;;;;;;;11.43;3.78;;;5.50;99.90;;;;;;4969553;28;20208;-44
2023/04/26 02:09:37;;;;;;;13.35;3.85;;;5.50;99.90;;;;;;4969473;28;20240;-45
2023/04/26 02:12:03;;;;;;;13.23;3.47;;;;;;;;;;4969559;28;20169;-44
2023/04/26 02:14:28;;;;;;;9.00;3.40;;;5.30;99.90;;;;;;4969652;28;20201;-44
2023/04/26 02:16:55;;;;;;;11.65;4.13;;;;;;;;;;4969506;28;20185;-44
2023/04/26 02:19:21;;;;;;;16.42;4.00;;;5.20;99.90;;;;;;4969993;28;20578;-44
2023/04/26 02:21:56;;;;;;;16.67;4.38;;;5.20;99.90;;;;;;4969820;28;20173;-45
2023/04/26 02:24:23;;;;;;;12.30;3.60;;;5.20;99.90;;;;;;4970410;28;20294;-47
2023/04/26 02:26:48;;;;;;;13.93;4.57;;;5.20;99.90;;;;;;4969776;28;20158;-48
2023/04/26 02:29:14;;;;;;;20.20;4.32;;;5.10;99.90;;;;;;4969280;28;20169;-53
2023/04/26 02:31:40;;;;;;;13.82;4.72;;;5.00;99.90;;;;;;4973280;28;20168;-54
2023/04/26 02:34:06;;;;;;;10.57;4.07;;;5.00;99.90;;;;;;4987314;28;20173;-50
2023/04/26 02:36:32;;;;;;;10.48;4.20;;;;;;;;;;4987372;28;20547;-47
2023/04/26 02:38:59;;;;;;;12.18;4.15;;;5.00;99.90;;;;;;4988584;28;20171;-47
2023/04/26 02:41:25;;;;;;;10.32;4.57;;;4.90;99.90;;;;;;4987448;28;20543;-47
2023/04/26 02:43:53;;;;;;;12.82;4.55;;;4.90;99.90;;;;;;4989185;28;20165;-48
2023/04/26 02:46:19;;;;;;;13.02;3.97;;;4.80;99.90;;;;;;4989174;28;20165;-51
2023/04/26 02:48:45;;;;;;;8.38;4.03;;;4.80;99.90;;;;;;4988827;28;20172;-56
2023/04/26 02:51:11;;;;;;;8.18;4.10;;;4.80;99.90;;;;;;4987445;28;20177;-49
2023/04/26 02:53:37;;;;;;;10.48;4.10;;;;;;;;;;4991674;28;20232;-49
2023/04/26 02:56:03;;;;;;;8.88;3.92;;;;;;;;;;4991713;28;20215;-47
2023/04/26 02:58:29;;;;;;;12.45;4.35;;;4.80;99.90;;;;;;4991871;28;20664;-45
2023/04/26 03:00:57;;;;;;;9.07;4.85;;;4.80;99.90;;;;;;4991908;28;20175;-45
2023/04/26 03:03:24;;;;;;;12.23;5.60;;;4.80;99.90;;;;;;4971206;28;20584;-47
2023/04/26 03:05:50;;;;;;;10.30;4.43;;;4.80;99.90;;;;;;4971385;28;20177;-49
2023/04/26 03:08:16;;;;;;;17.70;5.00;;;4.80;99.90;;;;;;4971219;28;20176;-45
2023/04/26 03:10:44;;;;;;;18.17;6.25;;;4.70;99.90;;;;;;4972165;28;20510;-50
2023/04/26 03:13:14;;;;;;;14.07;5.57;;;4.70;99.90;;;;;;4972406;28;20298;-49
2023/04/26 03:15:45;;;;;;;12.52;5.57;;;4.70;99.90;;;;;;4972100;28;20205;-47
2023/04/26 03:18:10;;;;;;;7.78;4.47;;;4.50;99.90;;;;;;4971308;28;20165;-48
2023/04/26 03:20:36;;;;;;;10.77;4.05;;;4.50;99.90;;;;;;4972270;28;20653;-49
2023/04/26 03:23:02;;;;;;;9.02;5.22;;;;;;;;;;4972500;28;20192;-49
2023/04/26 03:25:29;;;;;;;13.07;5.38;;;4.50;99.90;;;;;;5061389;28;20178;-50
2023/04/26 03:27:55;;;;;;;11.18;4.70;;;4.50;99.90;;;;;;5072580;28;20173;-53
2023/04/26 03:30:21;;;;;;;8.57;4.88;;;4.50;99.90;;;;;;5074012;28;20625;-47
2023/04/26 03:32:52;;;;;;;7.75;4.80;;;4.50;99.90;;;;;;4998994;28;20184;-50
2023/04/26 03:35:18;;;;;;;11.77;5.50;;;4.60;99.90;;;;;;4988810;28;20220;-48
2023/04/26 03:38:10;;;;;;;8.43;5.50;;;4.60;99.90;;;;;;4991270;28;20172;-53
2023/04/26 03:40:35;;;;;;;9.10;5.00;;;4.60;99.90;;;;;;4991006;28;20177;-44
2023/04/26 03:43:07;;;;;;;10.48;5.45;;;4.60;99.90;;;;;;4989903;28;20173;-49
2023/04/26 03:45:36;;;;;;;8.40;5.40;;;4.50;99.90;;;;;;4989921;28;20267;-48
2023/04/26 03:48:08;;;;;;;17.83;5.70;;;4.50;99.90;;;;;;4990519;28;20180;-52
2023/04/26 03:50:45;;;;;;;;;;;;;;;;;;;;;
2023/04/26 03:53:12;;;;;;;13.90;6.32;;;;;;;;;;4990758;28;20172;-48
2023/04/26 03:55:40;;;;;;;12.50;5.30;;;4.40;99.90;;;;;;4989878;28;20212;-48
2023/04/26 03:58:06;;;;;;;9.50;5.32;;;4.40;99.90;;;;;;4990265;28;20223;-46
2023/04/26 04:01:03;;;;;;;7.78;5.22;;;4.40;99.90;;;;;;4991145;28;20180;-45
2023/04/26 04:03:32;;;;;;;14.63;5.57;;;4.40;99.90;;;;;;4952135;28;20731;-46
2023/04/26 04:06:01;;;;;;;12.18;6.20;;;4.30;99.90;;;;;;4953187;28;20582;-49
2023/04/26 04:08:45;;;;;;;8.45;5.45;;;;;;;;;;4952370;28;20174;-44
2023/04/26 04:11:25;;;;;;;11.25;6.28;;;4.40;99.90;;;;;;4950952;28;20205;-53
2023/04/26 04:14:06;;;;;;;11.30;5.50;;;4.40;99.90;;;;;;4967905;28;20266;-44
2023/04/26 04:16:37;;;;;;;10.25;5.32;;;4.30;99.90;;;;;;4952719;28;20653;-48
2023/04/26 04:19:04;;;;;;;12.60;5.15;;;;;;;;;;4952689;28;20173;-50
2023/04/26 04:21:32;;;;;;;11.25;6.30;;;4.10;99.90;;;;;;4951127;28;20185;-51
2023/04/26 04:23:59;;;;;;;11.27;6.25;;;4.10;99.90;;;;;;4972296;28;20216;-46
2023/04/26 04:26:34;;;;;;;10.95;6.18;;;4.10;99.90;;;;;;4952465;28;20170;-58
2023/04/26 04:29:07;;;;;;;8.88;5.70;;;4.10;99.90;;;;;;4953024;28;20178;-56
2023/04/26 04:31:43;;;;;;;14.55;6.72;;;4.20;99.90;;;;;;4964929;28;20172;-45
2023/04/26 04:34:35;;;;;;;11.95;6.63;;;4.30;99.90;;;;;;4974943;28;20180;-47
2023/04/26 04:37:10;;;;;;;12.93;7.00;;;4.50;99.90;;;;;;4990703;28;20217;-47
2023/04/26 04:39:36;;;;;;;8.50;5.68;;;4.40;99.90;;;;;;4990721;28;20157;-53
2023/04/26 04:42:02;;;;;;;10.80;6.07;;;4.50;99.90;;;;;;4990822;28;20251;-51
2023/04/26 04:44:36;;;;;;;12.93;6.70;;;4.50;99.90;;;;;;4989731;28;20176;-45
2023/04/26 04:47:04;;;;;;;13.50;6.28;;;4.50;99.90;;;;;;4990828;28;20534;-52
2023/04/26 04:52:35;;;;;;;14.10;7.03;;;4.50;99.90;;;;;;4971986;28;20547;-50
2023/04/26 04:55:03;;;;;;;12.25;6.63;;;4.60;99.90;;;;;;4986050;28;20208;-52
2023/04/26 04:57:33;;;;;;;13.93;5.68;;;4.70;99.90;;;;;;4969578;28;20197;-56
2023/04/26 05:00:06;;;;;;;14.35;6.65;;;4.70;99.90;;;;;;4978002;28;20219;-55
2023/04/26 05:02:36;;;;;;;12.75;6.45;;;4.70;99.90;;;;;;4989017;28;20644;-53
2023/04/26 05:05:07;;;;;;;11.70;5.65;;;4.70;99.90;;;;;;4989510;28;20208;-56
2023/04/26 05:07:36;;;;;;;13.93;6.40;;;;;;;;;;4990687;28;20164;-52
2023/04/26 05:10:19;;;;;;;10.50;6.28;;;4.90;99.90;;;;;;4982573;28;20409;-55
2023/04/26 05:12:57;;;;;;;16.88;6.40;;;5.00;99.90;;;;;;4969799;28;20204;-47
2023/04/26 05:15:39;;;;;;;15.82;7.07;;;5.00;99.90;;;;;;4969181;28;20208;-54
2023/04/26 05:18:06;;;;;;;13.38;6.38;;;5.20;99.90;;;;;;4970595;28;20184;-61
2023/04/26 05:20:42;;;;;;;15.57;7.10;;;5.20;99.90;;;;;;4969096;28;20718;-51
2023/04/26 05:23:11;;;;;;;9.30;5.68;;;5.20;99.90;;;;;;4969691;28;20173;-53
2023/04/26 05:25:43;;;;;;;13.20;6.05;;;5.30;99.90;;;;;;4963977;28;20261;-56
2023/04/26 05:28:19;;;;;;;10.35;6.57;;;5.30;99.90;;;;;;4989996;28;20169;-50
2023/04/26 05:31:12;;;;;;;13.43;7.18;;;5.30;99.90;;;;;;4962106;28;20679;-56
2023/04/26 05:33:52;;;;;;;12.77;6.95;;;5.40;99.90;;;;;;4969253;28;20556;-52
2023/04/26 05:36:32;;;;;;;13.48;6.50;;;5.40;99.90;;;;;;4973566;28;20737;-52
2023/04/26 05:42:18;;;;;;;15.20;6.05;;;5.30;99.90;;;;;;4984970;28;20272;-51
2023/04/26 05:44:44;;;;;;;17.92;6.97;;;;;;;;;;4988273;28;20183;-54
2023/04/26 05:47:16;;;;;;;10.95;6.53;;;5.60;99.90;;;;;;4980946;28;20514;-51
2023/04/26 05:49:49;;;;;;;11.13;6.60;;;5.60;99.90;;;;;;4969210;28;20174;-46
2023/04/26 05:52:27;;;;;;;13.90;7.35;;;5.70;99.90;;;;;;4971341;28;20174;-53
2023/04/26 05:55:03;;;;;;;16.17;7.15;;;5.90;99.90;;;;;;4969744;28;20606;-46
2023/04/26 05:57:33;;;;;;;11.23;6.70;;;6.00;99.90;;;;;;4968831;28;20624;-51
2023/04/26 06:00:12;;;;;;;16.08;7.20;;;6.10;99.90;;;;;;4970809;28;20184;-54
2023/04/26 06:03:01;;;;;;;12.25;7.32;;;6.10;99.90;;;;;;4982492;28;20249;-54
2023/04/26 06:05:40;;;;;;;12.73;7.28;;;6.20;99.90;;;;;;4988513;28;20200;-46
2023/04/26 06:08:05;;;;;;;14.95;7.15;;;6.30;99.90;;;;;;4988454;28;20172;-48
2023/04/26 06:10:31;;;;;;;17.70;7.38;;;6.40;99.90;;;;;;4989310;28;20224;-49
2023/04/26 06:12:57;;;;;;;15.90;7.00;;;6.40;99.90;;;;;;4989507;28;20169;-49
2023/04/26 06:15:23;;;;;;;16.40;7.75;;;;;;;;;;4989372;28;20253;-46
2023/04/26 06:17:48;;;;;;;16.30;6.85;;;6.50;99.90;;;;;;4989778;28;20169;-50
2023/04/26 06:20:14;;;;;;;16.52;7.00;;;6.60;99.90;;;;;;4989296;28;20218;-46
2023/04/26 06:22:39;;;;;;;21.50;7.72;;;6.70;99.90;;;;;;4989318;28;20165;-46
2023/04/26 06:25:06;;;;;;;15.75;7.22;;;6.70;99.90;;;;;;4989502;28;20259;-46
2023/04/26 06:27:32;;;;;;;13.98;7.65;;;6.80;99.90;;;;;;4992499;28;20199;-45
2023/04/26 06:29:57;;;;;;;17.58;8.07;;;6.90;99.90;;;;;;4975917;28;20214;-56
2023/04/26 06:32:23;;;;;;;12.95;7.22;;;;;;;;;;4973121;28;20169;-49
2023/04/26 06:34:49;;;;;;;21.25;9.07;;;7.00;99.90;;;;;;4978095;28;20200;-51
2023/04/26 06:37:15;;;;;;;15.48;9.00;;;7.10;99.90;;;;;;4974138;28;20264;-50
2023/04/26 06:39:40;;;;;;;13.50;7.75;;;7.30;99.90;;;;;;4973239;28;20182;-48
2023/04/26 06:42:06;;;;;;;15.30;7.82;;;7.40;99.90;;;;;;4970084;28;20208;-44
2023/04/26 06:44:31;;;;;;;24.52;8.70;;;7.40;99.90;;;;;;5042497;28;20196;-45
2023/04/26 06:46:57;;;;;;;11.93;6.93;;;7.70;99.90;;;;;;5073374;28;20165;-47
2023/04/26 06:49:23;;;;;;;18.65;8.25;;;7.70;99.90;;;;;;5053819;28;20185;-44
2023/04/26 06:51:51;;;;;;;15.80;7.97;;;;;;;;;;4971419;28;20170;-54
2023/04/26 06:54:17;;;;;;;12.35;7.90;;;7.70;99.90;;;;;;4975170;28;20180;-43
2023/04/26 06:56:43;;;;;;;13.40;7.80;;;7.70;99.90;;;;;;4990322;28;20187;-46
2023/04/26 06:59:09;;;;;;;15.57;7.88;;;;;;;;;;4990339;28;20172;-44
2023/04/26 07:01:35;;;;;;;18.33;8.32;;;7.70;99.90;;;;;;4990445;28;20173;-47
2023/04/26 07:04:02;;;;;;;15.82;7.15;;;7.90;99.90;;;;;;4990044;28;20184;-46
2023/04/26 07:06:28;;;;;;;18.67;7.43;;;7.90;99.90;;;;;;4978917;28;20183;-51
2023/04/26 07:08:54;;;;;;;13.95;7.15;;;;;;;;;;4974130;28;20222;-52
2023/04/26 07:11:20;;;;;;;17.48;7.50;;;7.80;99.90;;;;;;4990640;28;20176;-46
2023/04/26 07:13:46;;;;;;;18.85;8.45;;;7.80;99.90;;;;;;5046540;28;20181;-47
2023/04/26 07:16:12;;;;;;;10.98;6.45;;;8.00;99.90;;;;;;5072585;28;20669;-46
2023/04/26 07:18:39;;;;;;;16.15;6.35;;;8.20;99.90;;;;;;5073015;28;20173;-47
2023/04/26 07:21:05;;;;;;;10.80;6.70;;;;;;;;;;5072832;28;20547;-45
2023/04/26 07:23:31;;;;;;;13.32;7.03;;;8.80;99.90;;;;;;5001615;28;20573;-47
2023/04/26 07:25:57;;;;;;;10.93;6.13;;;8.80;99.90;;;;;;4987763;28;20173;-45
2023/04/26 07:28:23;;;;;;;14.45;6.45;;;;;;;;;;4970476;28;20184;-45
2023/04/26 07:30:48;;;;;;;16.38;6.95;;;8.60;99.90;;;;;;4971064;28;20209;-44
2023/04/26 07:33:14;;;;;;;15.32;6.80;;;;;;;;;;4970541;28;20216;-47
2023/04/26 07:35:42;;;;;;;12.82;6.75;;;8.90;99.90;;;;;;4970454;28;20220;-47
2023/04/26 07:38:09;;;;;;;18.73;6.65;;;;;;;;;;4969985;28;20177;-45
2023/04/26 07:40:35;;;;;;;10.30;6.03;;;9.00;99.90;;;;;;4970427;28;20200;-44
2023/04/26 07:43:01;;;;;;;12.13;5.38;;;;;;;;;;4970564;28;20657;-44
2023/04/26 07:45:27;;;;;;;17.95;6.32;;;;;;;;;;4970274;28;20177;-48
2023/04/26 07:47:53;;;;;;;11.93;5.40;;;9.20;99.90;;;;;;4970329;28;20234;-44
2023/04/26 07:50:19;;;;;;;9.85;4.45;;;9.00;99.90;;;;;;4970820;28;20272;-46
2023/04/26 07:52:44;;;;;;;13.25;5.35;;;9.10;99.90;;;;;;4979925;28;20576;-47
2023/04/26 07:55:10;;;;;;;13.27;4.82;;;;;;;;;;4989160;28;20204;-46
2023/04/26 07:57:37;;;;;;;10.88;4.55;;;;;;;;;;4989619;28;20180;-47
2023/04/26 08:00:06;;;;;;;9.52;4.53;;;9.40;99.90;;;;;;4989479;28;20176;-47
2023/04/26 08:02:32;;;;;;;14.82;4.40;;;;;;;;;;4989866;28;20176;-44
2023/04/26 08:04:58;;;;;;;10.48;4.05;;;9.70;99.90;;;;;;4989493;28;20172;-44
2023/04/26 08:07:23;;;;;;;9.77;4.28;;;9.60;99.90;;;;;;4989456;28;20507;-46
2023/04/26 08:09:49;;;;;;;10.60;4.35;;;;;;;;;;4989146;28;20591;-46
2023/04/26 08:12:15;;;;;;;8.77;4.40;;;;;;;;;;4989109;28;20202;-44
2023/04/26 08:14:41;;;;;;;13.32;4.05;;;;;;;;;;4989200;28;20712;-44
2023/04/26 08:17:10;;;;;;;14.90;4.65;;;9.90;99.90;;;;;;4989422;28;20183;-45
2023/04/26 08:19:36;;;;;;;13.30;4.78;;;;;;;;;;4989277;28;20193;-43
2023/04/26 08:22:02;;;;;;;9.45;4.82;;;;;;;;;;4982992;28;20596;-44
2023/04/26 08:24:28;;;;;;;8.02;3.95;;;10.20;99.90;;;;;;4969986;28;20264;-47
2023/04/26 08:26:54;;;;;;;10.10;3.58;;;10.20;99.90;;;;;;4969770;28;20252;-45
2023/04/26 08:29:21;;;;;;;9.85;3.88;;;10.10;99.90;;;;;;4970306;28;20180;-45
2023/04/26 08:31:47;;;;;;;9.50;4.25;;;9.90;99.90;;;;;;4969998;28;20197;-48
2023/04/26 08:34:13;;;;;;;10.02;4.00;;;;;;;;;;4969527;28;20201;-48
2023/04/26 08:36:41;;;;;;;9.15;4.07;;;10.20;99.90;;;;;;4969350;28;20209;-48
2023/04/26 08:39:07;;;;;;;7.15;3.20;;;10.10;99.90;;;;;;4969689;28;20169;-48
2023/04/26 08:41:43;;;;;;;8.05;3.25;;;10.40;99.90;;;;;;4969639;28;20174;-48
2023/04/26 08:44:09;;;;;;;13.48;4.20;;;10.30;99.90;;;;;;4969532;28;20554;-48
2023/04/26 08:47:05;;;;;;;7.50;3.40;;;10.30;99.90;;;;;;4969564;28;20165;-49
2023/04/26 08:49:42;;;;;;;8.05;3.28;;;10.90;99.90;;;;;;4968425;28;20204;-47
2023/04/26 08:52:10;;;;;;;10.77;3.88;;;10.90;99.90;;;;;;4976279;28;20172;-45
2023/04/26 08:54:37;;;;;;;9.15;3.88;;;10.70;99.90;;;;;;4988619;28;20180;-47
2023/04/26 08:57:03;;;;;;;8.95;3.03;;;10.40;99.90;;;;;;4988902;28;20180;-44
2023/04/26 08:59:32;;;;;;;10.05;3.67;;;10.80;99.90;;;;;;4988736;28;20505;-43
2023/04/26 09:02:00;;;;;;;14.23;4.60;;;10.90;99.90;;;;;;4988900;28;20177;-44
2023/04/26 09:04:25;;;;;;;9.73;4.10;;;11.00;99.90;;;;;;4988853;28;20175;-45
2023/04/26 09:06:57;;;;;;;13.63;4.65;;;11.20;99.90;;;;;;4988589;28;20177;-44
2023/04/26 09:09:25;;;;;;;9.50;4.20;;;11.50;99.90;;;;;;4988392;28;20297;-46
2023/04/26 09:12:03;;;;;;;14.85;4.82;;;11.60;99.90;;;;;;5107438;27;20557;-45
2023/04/26 09:14:28;;;;;;;10.85;4.22;;;11.90;99.90;;;;;;5107685;28;20183;-44
2023/04/26 09:16:54;;;;;;;7.35;3.95;;;11.90;99.90;;;;;;5107844;28;20529;-46
2023/04/26 09:19:42;;;;;;;11.32;4.18;;;11.50;99.90;;;;;;5107840;28;20161;-44
2023/04/26 09:22:08;;;;;;;8.70;4.32;;;;;;;;;;5106798;28;20187;-44
2023/04/26 09:24:49;;;;;;;11.07;4.53;;;11.30;99.90;;;;;;5107122;28;20181;-44
2023/04/26 09:27:15;;;;;;;14.13;4.32;;;11.30;99.90;;;;;;5107210;28;20172;-44
2023/04/26 09:30:02;;;;;;;9.02;3.53;;;11.50;99.90;;;;;;5107504;28;20169;-44
2023/04/26 09:32:45;;;;;;;8.32;3.00;;;11.00;99.90;;;;;;5107091;28;20169;-44
2023/04/26 09:35:30;;;;;;;12.52;2.78;;;11.00;99.90;;;;;;5107041;28;20192;-44
2023/04/26 09:38:07;;;;;;;7.30;2.78;;;11.00;99.90;;;;;;5106730;28;20168;-44
2023/04/26 09:40:40;;;;;;;5.90;1.90;;;11.00;99.90;;;;;;5106963;28;20259;-44
2023/04/26 09:43:11;;;;;;;3.63;2.00;;;11.30;99.90;;;;;;5105921;28;20168;-46
2023/04/26 09:45:44;;;;;;;7.35;2.58;;;11.70;98.80;;;;;;5106943;28;20560;-44
2023/04/26 09:48:13;;;;;;;6.50;2.50;;;11.80;98.00;;;;;;5107251;28;20180;-44
2023/04/26 09:50:39;;;;;;;5.40;2.38;;;11.70;98.20;;;;;;5107177;28;20219;-44
2023/04/26 09:53:05;;;;;;;5.55;2.28;;;;;;;;;;5088106;28;20173;-44
2023/04/26 09:55:31;;;;;;;7.93;2.50;;;11.80;99.90;;;;;;5086330;28;20196;-45
2023/04/26 09:57:59;;;;;;;6.03;2.70;;;11.80;99.90;;;;;;5086146;28;20168;-45
2023/04/26 10:00:25;;;;;;;8.57;2.70;;;11.60;99.90;;;;;;5086716;28;20243;-44
2023/04/26 10:02:53;;;;;;;8.90;2.92;;;11.90;99.90;;;;;;5086660;28;20205;-45
2023/04/26 10:05:20;;;;;;;9.73;2.90;;;;;;;;;;5086797;28;20244;-44
2023/04/26 10:07:46;;;;;;;7.35;3.17;;;12.10;99.90;;;;;;5086646;28;20641;-44
2023/04/26 10:10:12;;;;;;;6.45;2.75;;;12.20;99.90;;;;;;5085975;28;20229;-45
2023/04/26 10:12:41;;;;;;;11.43;2.88;;;12.60;99.90;;;;;;5086240;28;20699;-44
2023/04/26 10:15:08;;;;;;;10.05;2.92;;;13.00;99.80;;;;;;5086104;28;20661;-45
2023/04/26 10:17:34;;;;;;;6.90;2.88;;;;;;;;;;5086051;28;20255;-45
2023/04/26 10:20:04;;;;;;;11.68;2.75;;;13.10;99.90;;;;;;5085780;28;20581;-45
2023/04/26 10:22:34;;;;;;;10.63;3.47;;;13.10;97.60;;;;;;5090171;28;20184;-45
2023/04/26 10:25:00;;;;;;;9.77;3.40;;;12.50;99.60;;;;;;5092708;28;20181;-45
2023/04/26 10:27:46;;;;;;;5.88;2.70;;;12.50;98.80;;;;;;5092717;28;20172;-45
2023/04/26 10:30:13;;;;;;;5.30;2.85;;;13.00;97.10;;;;;;5092335;28;20610;-44
2023/04/26 10:32:51;;;;;;;10.77;2.88;;;13.00;96.90;;;;;;5092612;28;20173;-45
2023/04/26 10:35:18;;;;;;;5.80;2.95;;;;;;;;;;5092925;28;20172;-44
2023/04/26 10:37:58;;;;;;;7.78;2.83;;;12.50;96.80;;;;;;5092492;28;20170;-44
2023/04/26 10:40:31;;;;;;;5.20;3.25;;;12.50;95.10;;;;;;5092430;28;20169;-45
2023/04/26 10:43:15;;;;;;;7.43;2.92;;;13.00;95.00;;;;;;5092611;28;20161;-44
2023/04/26 10:45:42;;;;;;;5.07;2.50;;;12.70;93.90;;;;;;5092603;28;20173;-44
2023/04/26 10:48:22;;;;;;;8.20;2.17;;;12.90;92.70;;;;;;5090851;28;20169;-48
2023/04/26 10:51:00;;;;;;;6.95;2.47;;;13.00;90.70;;;;;;5090994;28;20232;-45
2023/04/26 10:53:52;;;;;;;8.93;2.53;;;13.10;92.10;;;;;;5078152;28;20210;-45
2023/04/26 10:56:26;;;;;;;9.80;2.90;;;13.00;91.00;;;;;;5089412;28;20185;-45
2023/04/26 10:59:12;;;;;;;5.43;2.15;;;13.30;91.80;;;;;;5092147;28;20160;-43
2023/04/26 11:01:38;;;;;;;8.95;2.78;;;13.50;91.50;;;;;;5091993;28;20162;-45
2023/04/26 11:04:07;;;;;;;8.57;2.40;;;13.50;91.30;;;;;;5091713;28;20195;-45
2023/04/26 11:06:49;;;;;;;7.88;2.60;;;13.70;90.60;;;;;;5091787;28;20165;-43
2023/04/26 11:09:38;;;;;;;5.05;2.10;;;13.10;91.30;;;;;;5092071;28;20173;-44
2023/04/26 11:12:12;;;;;;;5.72;2.55;;;17.50;93.70;;;;;;5091504;28;20170;-45
2023/04/26 11:14:40;;;;;;;9.30;3.13;;;13.60;89.10;;;;;;5091735;28;20617;-43
2023/04/26 11:17:07;;;;;;;6.82;2.47;;;13.90;89.70;;;;;;5091711;28;20174;-46
2023/04/26 11:19:33;;;;;;;6.57;2.28;;;;;;;;;;5091561;28;20173;-45
2023/04/26 11:22:02;;;;;;;6.10;2.67;;;14.20;89.50;;;;;;5079591;28;20868;-47
2023/04/26 11:24:30;;;;;;;8.38;2.78;;;14.10;86.70;;;;;;5071106;28;20310;-47
2023/04/26 11:26:57;;;;;;;8.85;3.47;;;14.20;89.00;;;;;;5070808;28;20185;-44
2023/04/26 11:29:28;;;;;;;5.57;2.35;;;14.10;83.70;;;;;;5070975;28;20582;-44
2023/04/26 11:31:55;;;;;;;8.48;2.13;;;13.80;85.20;;;;;;5070979;28;20223;-44
2023/04/26 11:34:34;;;;;;;6.45;2.40;;;13.60;82.60;;;;;;5070007;28;20296;-45
2023/04/26 11:37:07;;;;;;;7.30;2.63;;;13.60;82.20;;;;;;5085008;28;20356;-45
2023/04/26 11:39:34;;;;;;;3.97;2.00;;;13.80;83.00;;;;;;5091010;28;20693;-44
2023/04/26 11:42:11;;;;;;;5.50;2.35;;;13.90;79.60;;;;;;5089931;28;20174;-47
2023/04/26 11:44:37;;;;;;;13.32;2.60;;;13.70;82.00;;;;;;5085300;28;20897;-44
2023/04/26 11:47:04;;;;;;;4.90;2.08;;;14.20;83.50;;;;;;5070617;28;20162;-45
2023/04/26 11:49:31;;;;;;;6.20;2.10;;;14.50;81.70;;;;;;5070353;28;20185;-45
2023/04/26 11:51:58;;;;;;;5.03;2.10;;;14.10;82.00;;;;;;5082999;28;20564;-44
2023/04/26 11:54:32;;;;;;;5.45;2.28;;;13.80;84.10;;;;;;5076103;28;20166;-44
2023/04/26 11:56:58;;;;;;;6.50;2.10;;;13.80;81.50;;;;;;5070422;28;20174;-44
2023/04/26 11:59:29;;;;;;;4.40;1.85;;;13.30;79.60;;;;;;5070494;28;20319;-44
2023/04/26 12:01:56;;;;;;;4.97;2.00;;;13.40;79.60;;;;;;5070730;28;20522;-44
2023/04/26 12:04:29;;;;;;;6.35;2.05;;;13.60;78.60;;;;;;5085618;28;20173;-45
2023/04/26 12:06:59;;;;;;;5.55;2.25;;;13.80;81.00;;;;;;5090585;28;20173;-44
2023/04/26 12:09:29;;;;;;;4.18;2.10;;;13.90;82.30;;;;;;5069898;28;20181;-46
2023/04/26 12:11:59;;;;;;;5.97;2.72;;;14.30;82.50;;;;;;5069011;28;20620;-48
2023/04/26 12:14:37;;;;;;;10.73;3.03;;;14.20;84.90;;;;;;5069218;28;20233;-45
2023/04/26 12:17:04;;;;;;;7.40;3.00;;;14.30;87.10;;;;;;5070364;28;20177;-46
2023/04/26 12:19:35;;;;;;;5.30;2.45;;;14.30;85.10;;;;;;5070466;28;20177;-45
2023/04/26 12:22:01;;;;;;;7.45;2.40;;;;;;;;;;5070354;28;20170;-44
2023/04/26 12:24:29;;;;;;;6.07;2.90;;;14.80;83.20;;;;;;5089473;28;20271;-45
2023/04/26 12:26:56;;;;;;;8.63;3.28;;;14.50;80.50;;;;;;5089494;28;20173;-44
2023/04/26 12:29:22;;;;;;;5.53;2.30;;;;;;;;;;5089667;28;20252;-45
2023/04/26 12:31:47;;;;;;;3.53;2.20;;;14.30;80.80;;;;;;5090345;28;20303;-45
2023/04/26 12:34:13;;;;;;;5.45;2.75;;;14.60;81.00;;;;;;5089491;28;20233;-45
2023/04/26 12:36:42;;;;;;;9.30;2.70;;;14.60;81.70;;;;;;5070411;28;20667;-45
2023/04/26 12:39:11;;;;;;;9.30;2.45;;;14.90;80.40;;;;;;5069624;28;20158;-48
2023/04/26 12:41:38;;;;;;;5.57;2.50;;;;;;;;;;5069682;28;20258;-45
2023/04/26 12:44:04;;;;;;;7.00;2.80;;;;;;;;;;5069758;28;20260;-45
2023/04/26 12:46:30;;;;;;;5.00;2.40;;;;;;;;;;5069443;28;20652;-44
2023/04/26 12:48:55;;;;;;;4.00;2.40;;;14.90;78.60;;;;;;5069717;28;20543;-45
2023/04/26 12:51:21;;;;;;;6.57;2.83;;;;;;;;;;5069576;28;20301;-44
2023/04/26 12:53:47;;;;;;;4.65;2.90;;;14.50;79.00;;;;;;5070214;28;20166;-45
2023/04/26 12:56:13;;;;;;;5.45;2.30;;;14.20;78.40;;;;;;5069668;28;20195;-45
2023/04/26 12:58:40;;;;;;;4.55;3.15;;;14.30;79.80;;;;;;5069747;28;20174;-45
2023/04/26 13:01:05;;;;;;;3.17;2.70;;;;;;;;;;5069916;28;20219;-45
2023/04/26 13:03:31;;;;;;;4.75;2.50;;;14.50;80.70;;;;;;5082406;28;20185;-45
2023/04/26 13:05:57;;;;;;;8.73;2.63;;;;;;;;;;5089773;28;20165;-46
2023/04/26 13:08:23;;;;;;;4.72;2.90;;;14.90;81.20;;;;;;5089795;28;20197;-45
2023/04/26 13:10:49;;;;;;;5.10;2.90;;;15.00;82.20;;;;;;5090056;28;20252;-44
2023/04/26 13:13:14;;;;;;;5.75;2.65;;;15.00;79.30;;;;;;5088545;28;20192;-46
2023/04/26 13:15:41;;;;;;;3.60;2.80;;;;;;;;;;5090302;28;20216;-45
2023/04/26 13:18:06;;;;;;;8.68;3.08;;;14.70;78.60;;;;;;5090069;28;20169;-45
2023/04/26 13:20:32;;;;;;;7.38;2.75;;;15.10;79.50;;;;;;5089766;28;20307;-45